Kakabeka Falls, Canada
Current Conditions -  °F | °C
As of 10:00 AM on Friday 28 Nov 2014 (Local Time) from CYQT Reporting Station
Broken Clouds Broken Clouds  
Wind Chill:   Ceiling: 19000
Heat Index:   Visibility: 20mi
Dew Point: -4°   Wind: 3mph
Humidity: 85%   Direction: 260°W
Pressure: 30.14"   Gusts: NA
Location:  48.4°N, 89.61°W
Report Text: CYQT 281500Z 26003KT 20SM FEW031 BKN190 M18/M20 A3014 RMK SC1AC6 SLP228
Loading
Personal Weather Stations






























Interactive Weather Map New forecast layout! Learn more

10-Day Weather Forecast

Advertisements
Track Severe Weather on mobile